sensor_id;sensor_type;location;lat;lon;timestamp;pressure;altitude;pressure_sealevel;temperature;humidity
75996;BME280;64681;49.738;9.004;2022-12-29T00:01:13;98812.81;;;12.00;61.30
75996;BME280;64681;49.738;9.004;2022-12-29T00:03:39;98808.06;;;11.74;62.16
75996;BME280;64681;49.738;9.004;2022-12-29T00:06:23;98806.13;;;11.90;62.41
75996;BME280;64681;49.738;9.004;2022-12-29T00:09:49;98806.91;;;12.10;61.46
75996;BME280;64681;49.738;9.004;2022-12-29T00:12:15;98780.41;;;11.85;62.46
75996;BME280;64681;49.738;9.004;2022-12-29T00:14:40;98799.44;;;12.00;62.39
75996;BME280;64681;49.738;9.004;2022-12-29T00:17:25;98768.66;;;11.90;62.32
75996;BME280;64681;49.738;9.004;2022-12-29T00:19:50;98772.75;;;12.03;63.05
75996;BME280;64681;49.738;9.004;2022-12-29T00:22:35;98777.09;;;11.72;63.28
75996;BME280;64681;49.738;9.004;2022-12-29T00:25:23;98757.03;;;11.63;63.92
75996;BME280;64681;49.738;9.004;2022-12-29T00:28:28;98757.31;;;11.77;63.44
75996;BME280;64681;49.738;9.004;2022-12-29T00:31:12;98748.59;;;11.80;62.86
75996;BME280;64681;49.738;9.004;2022-12-29T00:33:56;98787.94;;;11.80;63.98
75996;BME280;64681;49.738;9.004;2022-12-29T00:36:42;98777.00;;;12.05;63.24
75996;BME280;64681;49.738;9.004;2022-12-29T00:39:13;98777.00;;;12.05;63.14
75996;BME280;64681;49.738;9.004;2022-12-29T00:42:08;98755.47;;;11.42;64.16
75996;BME280;64681;49.738;9.004;2022-12-29T00:45:04;98749.78;;;11.63;63.65
75996;BME280;64681;49.738;9.004;2022-12-29T00:47:30;98767.72;;;12.22;62.69
75996;BME280;64681;49.738;9.004;2022-12-29T00:49:55;98775.31;;;11.80;64.20
75996;BME280;64681;49.738;9.004;2022-12-29T00:52:21;98784.59;;;12.02;63.74
75996;BME280;64681;49.738;9.004;2022-12-29T00:54:46;98792.16;;;11.81;65.33
75996;BME280;64681;49.738;9.004;2022-12-29T00:57:14;98754.56;;;11.93;64.39
75996;BME280;64681;49.738;9.004;2022-12-29T00:59:41;98795.13;;;11.76;65.73
75996;BME280;64681;49.738;9.004;2022-12-29T01:02:09;98800.34;;;11.68;65.48
75996;BME280;64681;49.738;9.004;2022-12-29T01:04:36;98810.91;;;11.81;67.00
75996;BME280;64681;49.738;9.004;2022-12-29T01:07:04;98786.59;;;11.15;68.96
75996;BME280;64681;49.738;9.004;2022-12-29T01:09:32;98812.69;;;11.21;70.83
75996;BME280;64681;49.738;9.004;2022-12-29T01:12:16;98769.97;;;10.41;73.55
75996;BME280;64681;49.738;9.004;2022-12-29T01:14:42;98765.31;;;10.70;72.02
75996;BME280;64681;49.738;9.004;2022-12-29T01:17:08;98782.88;;;10.39;74.70
75996;BME280;64681;49.738;9.004;2022-12-29T01:19:33;98762.16;;;10.20;74.66
75996;BME280;64681;49.738;9.004;2022-12-29T01:21:59;98767.09;;;10.06;75.19
75996;BME280;64681;49.738;9.004;2022-12-29T01:24:25;98778.94;;;10.49;74.74
75996;BME280;64681;49.738;9.004;2022-12-29T01:26:51;98750.44;;;10.25;73.72
75996;BME280;64681;49.738;9.004;2022-12-29T01:29:19;98735.72;;;10.15;73.18
75996;BME280;64681;49.738;9.004;2022-12-29T01:31:45;98753.78;;;10.06;75.42
75996;BME280;64681;49.738;9.004;2022-12-29T01:34:11;98769.56;;;10.11;74.93
75996;BME280;64681;49.738;9.004;2022-12-29T01:36:37;98771.44;;;10.10;76.35
75996;BME280;64681;49.738;9.004;2022-12-29T01:39:14;98762.88;;;10.33;74.98
75996;BME280;64681;49.738;9.004;2022-12-29T01:41:39;98808.38;;;10.24;75.66
75996;BME280;64681;49.738;9.004;2022-12-29T01:47:33;98788.66;;;11.05;72.80
75996;BME280;64681;49.738;9.004;2022-12-29T01:52:45;98763.97;;;10.76;72.94
75996;BME280;64681;49.738;9.004;2022-12-29T01:55:12;98771.63;;;10.78;72.19
75996;BME280;64681;49.738;9.004;2022-12-29T01:57:46;98736.78;;;10.26;73.19
75996;BME280;64681;49.738;9.004;2022-12-29T02:00:13;98755.69;;;10.50;71.82
75996;BME280;64681;49.738;9.004;2022-12-29T02:02:44;98765.50;;;10.77;70.54
75996;BME280;64681;49.738;9.004;2022-12-29T02:05:42;98783.91;;;10.99;70.46
75996;BME280;64681;49.738;9.004;2022-12-29T02:08:11;98717.78;;;10.76;70.54
75996;BME280;64681;49.738;9.004;2022-12-29T02:10:39;98763.50;;;10.90;71.44
75996;BME280;64681;49.738;9.004;2022-12-29T02:13:06;98752.38;;;10.88;72.32
75996;BME280;64681;49.738;9.004;2022-12-29T02:35:44;98777.84;;;11.18;71.34
75996;BME280;64681;49.738;9.004;2022-12-29T02:41:27;98793.44;;;11.32;71.50
75996;BME280;64681;49.738;9.004;2022-12-29T02:44:06;98730.66;;;11.06;70.83
75996;BME280;64681;49.738;9.004;2022-12-29T02:49:48;98779.34;;;11.51;70.21
75996;BME280;64681;49.738;9.004;2022-12-29T02:52:26;98722.88;;;11.17;70.42
75996;BME280;64681;49.738;9.004;2022-12-29T02:54:56;98717.13;;;11.15;70.37
75996;BME280;64681;49.738;9.004;2022-12-29T02:59:56;98722.19;;;11.04;70.53
75996;BME280;64681;49.738;9.004;2022-12-29T03:05:48;98762.69;;;11.22;71.53
75996;BME280;64681;49.738;9.004;2022-12-29T03:10:59;98761.66;;;11.46;70.97
75996;BME280;64681;49.738;9.004;2022-12-29T03:14:15;98762.53;;;10.99;72.58
75996;BME280;64681;49.738;9.004;2022-12-29T03:17:09;98733.03;;;11.11;72.77
75996;BME280;64681;49.738;9.004;2022-12-29T03:19:46;98750.44;;;11.21;72.21
75996;BME280;64681;49.738;9.004;2022-12-29T03:22:22;98734.50;;;11.24;71.27
75996;BME280;64681;49.738;9.004;2022-12-29T03:25:05;98742.31;;;11.33;71.60
75996;BME280;64681;49.738;9.004;2022-12-29T03:27:48;98744.06;;;11.45;71.09
75996;BME280;64681;49.738;9.004;2022-12-29T03:30:15;98758.59;;;11.64;70.78
75996;BME280;64681;49.738;9.004;2022-12-29T03:32:49;98751.88;;;11.54;71.13
75996;BME280;64681;49.738;9.004;2022-12-29T03:35:21;98744.47;;;11.28;71.61
75996;BME280;64681;49.738;9.004;2022-12-29T03:40:33;98731.31;;;11.19;71.41
75996;BME280;64681;49.738;9.004;2022-12-29T03:43:02;98759.34;;;11.45;71.52
75996;BME280;64681;49.738;9.004;2022-12-29T03:45:28;98738.94;;;11.36;71.66
75996;BME280;64681;49.738;9.004;2022-12-29T03:47:54;98735.09;;;11.18;72.19
75996;BME280;64681;49.738;9.004;2022-12-29T03:50:19;98726.47;;;11.24;71.73
75996;BME280;64681;49.738;9.004;2022-12-29T03:52:45;98734.81;;;11.23;71.57
75996;BME280;64681;49.738;9.004;2022-12-29T03:55:10;98715.22;;;11.35;70.50
75996;BME280;64681;49.738;9.004;2022-12-29T03:57:36;98715.81;;;11.08;71.03
75996;BME280;64681;49.738;9.004;2022-12-29T04:00:04;98707.28;;;11.38;70.63
75996;BME280;64681;49.738;9.004;2022-12-29T04:02:30;98710.19;;;11.49;69.99
75996;BME280;64681;49.738;9.004;2022-12-29T04:04:55;98714.38;;;11.50;69.96
75996;BME280;64681;49.738;9.004;2022-12-29T04:07:21;98715.75;;;11.60;70.24
75996;BME280;64681;49.738;9.004;2022-12-29T04:09:47;98700.88;;;11.63;69.05
75996;BME280;64681;49.738;9.004;2022-12-29T04:12:12;98704.25;;;11.60;69.53
75996;BME280;64681;49.738;9.004;2022-12-29T04:14:40;98697.09;;;11.64;69.05
75996;BME280;64681;49.738;9.004;2022-12-29T04:17:06;98682.50;;;11.61;69.28
75996;BME280;64681;49.738;9.004;2022-12-29T04:19:32;98702.72;;;11.39;68.75
75996;BME280;64681;49.738;9.004;2022-12-29T04:21:57;98677.03;;;11.54;68.31
75996;BME280;64681;49.738;9.004;2022-12-29T04:24:23;98689.88;;;11.87;67.92
75996;BME280;64681;49.738;9.004;2022-12-29T04:26:49;98699.16;;;11.94;68.01
75996;BME280;64681;49.738;9.004;2022-12-29T04:29:15;98679.00;;;11.57;68.50
75996;BME280;64681;49.738;9.004;2022-12-29T04:31:41;98687.19;;;11.45;69.22
75996;BME280;64681;49.738;9.004;2022-12-29T04:34:06;98675.63;;;11.60;69.02
75996;BME280;64681;49.738;9.004;2022-12-29T04:36:32;98686.78;;;11.85;67.78
75996;BME280;64681;49.738;9.004;2022-12-29T04:38:57;98684.88;;;11.86;67.66
75996;BME280;64681;49.738;9.004;2022-12-29T04:41:23;98686.00;;;11.85;67.91
75996;BME280;64681;49.738;9.004;2022-12-29T04:43:49;98653.53;;;11.63;68.38
75996;BME280;64681;49.738;9.004;2022-12-29T04:46:15;98677.16;;;11.81;68.30
75996;BME280;64681;49.738;9.004;2022-12-29T04:48:41;98665.56;;;11.14;69.14
75996;BME280;64681;49.738;9.004;2022-12-29T04:51:06;98693.31;;;11.09;69.21
75996;BME280;64681;49.738;9.004;2022-12-29T04:53:32;98680.53;;;11.19;69.15
75996;BME280;64681;49.738;9.004;2022-12-29T04:55:58;98669.06;;;11.57;68.05
75996;BME280;64681;49.738;9.004;2022-12-29T04:58:23;98684.38;;;11.37;68.89
75996;BME280;64681;49.738;9.004;2022-12-29T05:00:51;98682.03;;;11.36;69.53
75996;BME280;64681;49.738;9.004;2022-12-29T05:03:17;98677.72;;;11.70;67.78
75996;BME280;64681;49.738;9.004;2022-12-29T05:05:45;98672.91;;;11.56;68.25
75996;BME280;64681;49.738;9.004;2022-12-29T05:08:10;98680.00;;;11.68;67.86
75996;BME280;64681;49.738;9.004;2022-12-29T05:10:36;98690.03;;;11.75;67.59
75996;BME280;64681;49.738;9.004;2022-12-29T05:13:01;98691.28;;;12.01;67.67
75996;BME280;64681;49.738;9.004;2022-12-29T05:15:27;98672.72;;;11.69;67.46
75996;BME280;64681;49.738;9.004;2022-12-29T05:17:53;98688.16;;;11.76;67.34
75996;BME280;64681;49.738;9.004;2022-12-29T05:20:19;98670.22;;;11.99;66.17
75996;BME280;64681;49.738;9.004;2022-12-29T05:22:44;98694.34;;;12.23;65.96
75996;BME280;64681;49.738;9.004;2022-12-29T05:25:10;98694.28;;;12.19;65.78
75996;BME280;64681;49.738;9.004;2022-12-29T05:27:36;98692.31;;;12.16;65.61
75996;BME280;64681;49.738;9.004;2022-12-29T05:30:02;98690.88;;;11.79;66.19
75996;BME280;64681;49.738;9.004;2022-12-29T05:32:37;98707.13;;;12.10;65.74
75996;BME280;64681;49.738;9.004;2022-12-29T05:35:03;98705.78;;;11.80;66.93
75996;BME280;64681;49.738;9.004;2022-12-29T05:37:29;98705.53;;;11.66;66.71
75996;BME280;64681;49.738;9.004;2022-12-29T05:39:54;98696.09;;;11.72;65.79
75996;BME280;64681;49.738;9.004;2022-12-29T05:42:20;98680.19;;;11.60;66.97
75996;BME280;64681;49.738;9.004;2022-12-29T05:44:46;98687.66;;;11.70;65.83
75996;BME280;64681;49.738;9.004;2022-12-29T05:47:11;98705.88;;;12.03;65.79
75996;BME280;64681;49.738;9.004;2022-12-29T05:49:37;98673.97;;;11.95;65.03
75996;BME280;64681;49.738;9.004;2022-12-29T05:52:03;98698.38;;;11.93;65.45
75996;BME280;64681;49.738;9.004;2022-12-29T05:54:28;98682.94;;;11.83;66.03
75996;BME280;64681;49.738;9.004;2022-12-29T05:56:54;98695.81;;;11.77;66.31
75996;BME280;64681;49.738;9.004;2022-12-29T05:59:19;98658.66;;;11.52;66.52
75996;BME280;64681;49.738;9.004;2022-12-29T06:01:45;98662.91;;;11.77;65.05
75996;BME280;64681;49.738;9.004;2022-12-29T06:04:10;98686.19;;;11.96;65.86
75996;BME280;64681;49.738;9.004;2022-12-29T06:06:36;98683.38;;;11.88;66.22
75996;BME280;64681;49.738;9.004;2022-12-29T06:09:02;98672.16;;;11.79;65.80
75996;BME280;64681;49.738;9.004;2022-12-29T06:11:27;98686.06;;;12.08;65.08
75996;BME280;64681;49.738;9.004;2022-12-29T06:13:53;98668.16;;;11.69;65.94
75996;BME280;64681;49.738;9.004;2022-12-29T06:16:18;98682.63;;;11.88;66.02
75996;BME280;64681;49.738;9.004;2022-12-29T06:18:44;98664.97;;;11.83;65.61
75996;BME280;64681;49.738;9.004;2022-12-29T06:21:10;98684.81;;;11.82;66.01
75996;BME280;64681;49.738;9.004;2022-12-29T06:23:35;98668.38;;;11.61;66.41
75996;BME280;64681;49.738;9.004;2022-12-29T06:26:01;98675.09;;;11.94;65.49
75996;BME280;64681;49.738;9.004;2022-12-29T06:28:26;98678.50;;;11.71;66.29
75996;BME280;64681;49.738;9.004;2022-12-29T06:30:52;98688.31;;;12.06;65.66
75996;BME280;64681;49.738;9.004;2022-12-29T06:33:18;98694.03;;;11.85;67.57
75996;BME280;64681;49.738;9.004;2022-12-29T06:35:44;98695.56;;;11.86;67.33
75996;BME280;64681;49.738;9.004;2022-12-29T06:38:11;98702.34;;;11.99;67.26
75996;BME280;64681;49.738;9.004;2022-12-29T06:40:37;98671.00;;;11.80;66.48
75996;BME280;64681;49.738;9.004;2022-12-29T06:43:03;98690.34;;;12.13;66.36
75996;BME280;64681;49.738;9.004;2022-12-29T06:45:28;98700.50;;;12.03;66.51
75996;BME280;64681;49.738;9.004;2022-12-29T06:47:54;98699.09;;;11.90;67.01
75996;BME280;64681;49.738;9.004;2022-12-29T06:50:19;98685.09;;;11.97;66.55
75996;BME280;64681;49.738;9.004;2022-12-29T06:52:47;98687.13;;;12.03;65.56
75996;BME280;64681;49.738;9.004;2022-12-29T06:55:13;98681.59;;;12.39;64.68
75996;BME280;64681;49.738;9.004;2022-12-29T06:57:38;98683.06;;;11.70;66.59
75996;BME280;64681;49.738;9.004;2022-12-29T07:00:04;98677.91;;;11.81;65.43
75996;BME280;64681;49.738;9.004;2022-12-29T07:02:30;98687.59;;;12.32;64.33
75996;BME280;64681;49.738;9.004;2022-12-29T07:04:56;98693.31;;;12.31;65.26
75996;BME280;64681;49.738;9.004;2022-12-29T07:07:22;98686.72;;;11.82;66.60
75996;BME280;64681;49.738;9.004;2022-12-29T07:09:47;98684.44;;;11.84;66.18
75996;BME280;64681;49.738;9.004;2022-12-29T07:12:13;98689.44;;;12.05;65.57
75996;BME280;64681;49.738;9.004;2022-12-29T07:14:39;98689.78;;;11.84;65.94
75996;BME280;64681;49.738;9.004;2022-12-29T07:17:05;98683.44;;;11.92;65.37
75996;BME280;64681;49.738;9.004;2022-12-29T07:19:32;98690.28;;;12.32;65.10
75996;BME280;64681;49.738;9.004;2022-12-29T07:21:58;98691.03;;;12.56;63.60
75996;BME280;64681;49.738;9.004;2022-12-29T07:24:26;98689.53;;;12.32;64.51
75996;BME280;64681;49.738;9.004;2022-12-29T07:26:52;98676.09;;;12.28;64.31
75996;BME280;64681;49.738;9.004;2022-12-29T07:29:18;98684.34;;;12.19;64.09
75996;BME280;64681;49.738;9.004;2022-12-29T07:31:43;98699.66;;;11.99;64.41
75996;BME280;64681;49.738;9.004;2022-12-29T07:34:09;98683.00;;;11.86;65.36
75996;BME280;64681;49.738;9.004;2022-12-29T07:36:35;98678.22;;;12.19;64.80
75996;BME280;64681;49.738;9.004;2022-12-29T07:39:01;98686.84;;;12.32;63.88
75996;BME280;64681;49.738;9.004;2022-12-29T07:41:27;98678.28;;;12.23;63.41
75996;BME280;64681;49.738;9.004;2022-12-29T07:43:52;98703.50;;;12.45;62.82
75996;BME280;64681;49.738;9.004;2022-12-29T07:46:18;98694.44;;;12.30;63.61
75996;BME280;64681;49.738;9.004;2022-12-29T07:48:46;98676.13;;;12.09;65.33
75996;BME280;64681;49.738;9.004;2022-12-29T07:51:12;98653.53;;;11.63;67.03
75996;BME280;64681;49.738;9.004;2022-12-29T07:53:37;98636.13;;;11.73;66.70
75996;BME280;64681;49.738;9.004;2022-12-29T07:56:03;98655.63;;;11.54;68.08
75996;BME280;64681;49.738;9.004;2022-12-29T07:58:29;98684.97;;;11.70;67.19
75996;BME280;64681;49.738;9.004;2022-12-29T08:00:55;98702.41;;;11.83;67.30
75996;BME280;64681;49.738;9.004;2022-12-29T08:03:22;98684.47;;;12.03;65.63
75996;BME280;64681;49.738;9.004;2022-12-29T08:05:48;98716.66;;;11.87;65.52
75996;BME280;64681;49.738;9.004;2022-12-29T08:08:14;98702.19;;;11.92;66.14
75996;BME280;64681;49.738;9.004;2022-12-29T08:10:40;98699.19;;;11.74;66.13
75996;BME280;64681;49.738;9.004;2022-12-29T08:13:06;98668.88;;;11.47;66.03
75996;BME280;64681;49.738;9.004;2022-12-29T08:15:31;98690.09;;;11.98;64.29
75996;BME280;64681;49.738;9.004;2022-12-29T08:17:57;98679.25;;;11.91;65.39
75996;BME280;64681;49.738;9.004;2022-12-29T08:20:25;98668.13;;;11.89;64.82
75996;BME280;64681;49.738;9.004;2022-12-29T08:22:53;98619.19;;;11.46;64.48
75996;BME280;64681;49.738;9.004;2022-12-29T08:25:18;98632.13;;;11.63;64.05
75996;BME280;64681;49.738;9.004;2022-12-29T08:27:47;98662.75;;;12.09;62.66
75996;BME280;64681;49.738;9.004;2022-12-29T08:30:13;98675.47;;;12.39;62.00
75996;BME280;64681;49.738;9.004;2022-12-29T08:32:39;98628.53;;;12.22;60.95
75996;BME280;64681;49.738;9.004;2022-12-29T08:35:05;98700.00;;;12.94;61.19
75996;BME280;64681;49.738;9.004;2022-12-29T08:37:34;98661.50;;;12.26;62.25
75996;BME280;64681;49.738;9.004;2022-12-29T08:40:07;98702.59;;;12.87;61.02
75996;BME280;64681;49.738;9.004;2022-12-29T08:42:36;98704.75;;;12.51;62.62
75996;BME280;64681;49.738;9.004;2022-12-29T08:45:01;98608.44;;;11.85;62.63
75996;BME280;64681;49.738;9.004;2022-12-29T08:47:28;98664.47;;;12.44;61.62
75996;BME280;64681;49.738;9.004;2022-12-29T08:49:53;98700.16;;;13.05;59.69
75996;BME280;64681;49.738;9.004;2022-12-29T08:52:19;98731.28;;;13.40;60.35
75996;BME280;64681;49.738;9.004;2022-12-29T08:54:45;98701.72;;;13.06;59.57
75996;BME280;64681;49.738;9.004;2022-12-29T08:57:11;98679.56;;;13.40;58.06
75996;BME280;64681;49.738;9.004;2022-12-29T08:59:37;98684.59;;;13.45;59.02
75996;BME280;64681;49.738;9.004;2022-12-29T09:02:02;98692.00;;;13.25;58.48
75996;BME280;64681;49.738;9.004;2022-12-29T09:04:28;98737.50;;;13.48;60.06
75996;BME280;64681;49.738;9.004;2022-12-29T09:06:53;98694.59;;;13.18;59.19
75996;BME280;64681;49.738;9.004;2022-12-29T09:09:20;98684.81;;;13.02;59.19
75996;BME280;64681;49.738;9.004;2022-12-29T09:11:46;98721.84;;;13.23;59.05
75996;BME280;64681;49.738;9.004;2022-12-29T09:14:12;98712.44;;;13.06;60.26
75996;BME280;64681;49.738;9.004;2022-12-29T09:16:38;98683.97;;;12.98;60.22
75996;BME280;64681;49.738;9.004;2022-12-29T09:19:04;98706.50;;;12.93;60.10
75996;BME280;64681;49.738;9.004;2022-12-29T09:21:30;98730.00;;;13.34;59.79
75996;BME280;64681;49.738;9.004;2022-12-29T09:23:56;98717.94;;;13.17;60.40
75996;BME280;64681;49.738;9.004;2022-12-29T09:26:22;98727.94;;;13.20;59.11
75996;BME280;64681;49.738;9.004;2022-12-29T09:28:47;98689.25;;;12.64;61.06
75996;BME280;64681;49.738;9.004;2022-12-29T09:31:13;98724.13;;;13.21;59.70
75996;BME280;64681;49.738;9.004;2022-12-29T09:33:39;98724.44;;;12.89;61.90
75996;BME280;64681;49.738;9.004;2022-12-29T09:36:05;98744.13;;;13.27;61.41
75996;BME280;64681;49.738;9.004;2022-12-29T09:38:32;98737.06;;;13.16;61.69
75996;BME280;64681;49.738;9.004;2022-12-29T09:41:20;98686.63;;;12.68;61.47
75996;BME280;64681;49.738;9.004;2022-12-29T09:44:16;98729.94;;;12.73;61.84
75996;BME280;64681;49.738;9.004;2022-12-29T09:46:57;98695.41;;;12.41;63.25
75996;BME280;64681;49.738;9.004;2022-12-29T09:49:38;98751.59;;;12.88;61.40
75996;BME280;64681;49.738;9.004;2022-12-29T09:52:14;98745.66;;;13.02;61.19
75996;BME280;64681;49.738;9.004;2022-12-29T09:54:42;98755.34;;;13.10;61.26
75996;BME280;64681;49.738;9.004;2022-12-29T09:57:35;98745.16;;;12.92;61.66
75996;BME280;64681;49.738;9.004;2022-12-29T10:00:17;98758.53;;;12.92;61.72
75996;BME280;64681;49.738;9.004;2022-12-29T10:02:49;98704.94;;;12.92;60.93
75996;BME280;64681;49.738;9.004;2022-12-29T10:14:41;98748.13;;;12.37;63.13
75996;BME280;64681;49.738;9.004;2022-12-29T10:25:46;98716.00;;;12.37;63.50
75996;BME280;64681;49.738;9.004;2022-12-29T10:28:38;98675.78;;;12.10;64.78
75996;BME280;64681;49.738;9.004;2022-12-29T10:41:22;98675.69;;;12.53;61.92
75996;BME280;64681;49.738;9.004;2022-12-29T10:44:21;98692.63;;;13.14;61.36
75996;BME280;64681;49.738;9.004;2022-12-29T10:57:28;98715.44;;;13.01;61.25
75996;BME280;64681;49.738;9.004;2022-12-29T11:04:35;98771.69;;;13.28;61.47
75996;BME280;64681;49.738;9.004;2022-12-29T11:06:43;98691.75;;;12.53;62.56
75996;BME280;64681;49.738;9.004;2022-12-29T11:09:27;98789.72;;;13.58;61.84
75996;BME280;64681;49.738;9.004;2022-12-29T11:11:58;98665.34;;;12.78;61.44
75996;BME280;64681;49.738;9.004;2022-12-29T11:14:34;98747.69;;;12.58;63.36
75996;BME280;64681;49.738;9.004;2022-12-29T11:17:03;98739.00;;;12.65;63.94
75996;BME280;64681;49.738;9.004;2022-12-29T11:20:16;98765.28;;;13.06;64.09
75996;BME280;64681;49.738;9.004;2022-12-29T11:22:44;98751.63;;;12.91;64.04
75996;BME280;64681;49.738;9.004;2022-12-29T11:25:12;98711.19;;;12.73;63.29
75996;BME280;64681;49.738;9.004;2022-12-29T11:27:38;98760.16;;;13.24;62.17
75996;BME280;64681;49.738;9.004;2022-12-29T11:30:23;98703.13;;;12.46;63.50
75996;BME280;64681;49.738;9.004;2022-12-29T11:32:53;98707.47;;;12.55;63.20
75996;BME280;64681;49.738;9.004;2022-12-29T11:38:01;98762.69;;;13.13;61.56
75996;BME280;64681;49.738;9.004;2022-12-29T11:40:28;98744.50;;;12.99;61.40
75996;BME280;64681;49.738;9.004;2022-12-29T11:42:58;98794.09;;;13.39;61.25
75996;BME280;64681;49.738;9.004;2022-12-29T11:45:33;98777.56;;;13.37;61.74
75996;BME280;64681;49.738;9.004;2022-12-29T11:50:39;98823.72;;;13.23;65.41
75996;BME280;64681;49.738;9.004;2022-12-29T11:53:16;98823.44;;;12.35;70.69
75996;BME280;64681;49.738;9.004;2022-12-29T11:55:56;98780.13;;;11.71;73.34
75996;BME280;64681;49.738;9.004;2022-12-29T11:58:34;98795.84;;;11.37;74.83
75996;BME280;64681;49.738;9.004;2022-12-29T12:01:10;98767.84;;;10.79;76.31
75996;BME280;64681;49.738;9.004;2022-12-29T12:03:52;98744.72;;;10.87;75.06
75996;BME280;64681;49.738;9.004;2022-12-29T12:06:24;98765.63;;;11.17;74.96
75996;BME280;64681;49.738;9.004;2022-12-29T12:08:53;98808.09;;;11.57;76.15
75996;BME280;64681;49.738;9.004;2022-12-29T12:11:36;98759.16;;;11.18;74.02
75996;BME280;64681;49.738;9.004;2022-12-29T12:16:50;98722.34;;;10.75;75.23
75996;BME280;64681;49.738;9.004;2022-12-29T12:19:42;98757.00;;;11.23;74.31
75996;BME280;64681;49.738;9.004;2022-12-29T12:22:27;98738.44;;;11.31;72.29
75996;BME280;64681;49.738;9.004;2022-12-29T12:25:20;98734.72;;;11.00;71.29
75996;BME280;64681;49.738;9.004;2022-12-29T12:27:55;98807.28;;;11.73;72.84
75996;BME280;64681;49.738;9.004;2022-12-29T12:30:39;98761.72;;;10.95;74.17
75996;BME280;64681;49.738;9.004;2022-12-29T12:33:24;98765.13;;;10.95;73.91
75996;BME280;64681;49.738;9.004;2022-12-29T12:36:17;98806.59;;;11.40;73.21
75996;BME280;64681;49.738;9.004;2022-12-29T12:39:01;98737.09;;;11.40;73.60
75996;BME280;64681;49.738;9.004;2022-12-29T12:42:00;98764.50;;;11.53;71.48
75996;BME280;64681;49.738;9.004;2022-12-29T12:50:38;98824.41;;;12.47;70.40
75996;BME280;64681;49.738;9.004;2022-12-29T12:53:30;98819.97;;;11.76;69.81
75996;BME280;64681;49.738;9.004;2022-12-29T13:02:30;98802.84;;;11.61;71.60
75996;BME280;64681;49.738;9.004;2022-12-29T13:10:24;98766.44;;;11.37;71.96
75996;BME280;64681;49.738;9.004;2022-12-29T13:16:09;98777.53;;;11.94;71.03
75996;BME280;64681;49.738;9.004;2022-12-29T13:24:34;98749.16;;;12.09;67.10
75996;BME280;64681;49.738;9.004;2022-12-29T13:27:06;98797.47;;;12.59;68.23
75996;BME280;64681;49.738;9.004;2022-12-29T13:30:00;98687.75;;;12.16;65.27
75996;BME280;64681;49.738;9.004;2022-12-29T13:38:14;98734.19;;;12.28;64.79
75996;BME280;64681;49.738;9.004;2022-12-29T13:40:55;98712.78;;;11.65;65.22
75996;BME280;64681;49.738;9.004;2022-12-29T13:43:32;98745.31;;;12.07;64.97
75996;BME280;64681;49.738;9.004;2022-12-29T13:46:07;98694.09;;;11.88;64.23
75996;BME280;64681;49.738;9.004;2022-12-29T13:51:44;98780.75;;;11.84;65.28
75996;BME280;64681;49.738;9.004;2022-12-29T13:57:48;98809.31;;;12.58;64.67
75996;BME280;64681;49.738;9.004;2022-12-29T14:00:26;98776.50;;;11.99;65.99
75996;BME280;64681;49.738;9.004;2022-12-29T14:03:41;98812.88;;;12.23;65.67
75996;BME280;64681;49.738;9.004;2022-12-29T14:06:31;98780.91;;;12.11;65.07
75996;BME280;64681;49.738;9.004;2022-12-29T14:11:53;98755.88;;;11.44;67.82
75996;BME280;64681;49.738;9.004;2022-12-29T14:14:30;98786.56;;;11.50;68.24
75996;BME280;64681;49.738;9.004;2022-12-29T14:17:11;98784.28;;;10.97;69.15
75996;BME280;64681;49.738;9.004;2022-12-29T14:19:42;98783.03;;;11.11;68.87
75996;BME280;64681;49.738;9.004;2022-12-29T14:22:11;98728.72;;;10.71;69.38
75996;BME280;64681;49.738;9.004;2022-12-29T14:24:44;98832.84;;;11.70;68.52
75996;BME280;64681;49.738;9.004;2022-12-29T14:29:47;98807.25;;;11.18;70.77
75996;BME280;64681;49.738;9.004;2022-12-29T14:34:53;98860.81;;;11.05;72.35
75996;BME280;64681;49.738;9.004;2022-12-29T14:37:33;98812.34;;;10.75;72.82
75996;BME280;64681;49.738;9.004;2022-12-29T14:42:41;98797.19;;;10.63;73.63
75996;BME280;64681;49.738;9.004;2022-12-29T14:45:28;98779.72;;;9.93;77.19
75996;BME280;64681;49.738;9.004;2022-12-29T14:47:56;98800.13;;;10.01;76.06
75996;BME280;64681;49.738;9.004;2022-12-29T14:50:41;98837.00;;;10.11;76.13
75996;BME280;64681;49.738;9.004;2022-12-29T14:56:12;98849.47;;;10.07;76.59
75996;BME280;64681;49.738;9.004;2022-12-29T15:03:54;98777.41;;;9.50;76.95
75996;BME280;64681;49.738;9.004;2022-12-29T15:06:31;98823.69;;;9.58;77.89
75996;BME280;64681;49.738;9.004;2022-12-29T15:09:34;98845.81;;;9.46;79.19
75996;BME280;64681;49.738;9.004;2022-12-29T15:14:57;98803.75;;;9.02;79.50
75996;BME280;64681;49.738;9.004;2022-12-29T15:17:29;98832.81;;;9.45;77.80
75996;BME280;64681;49.738;9.004;2022-12-29T15:35:40;98892.44;;;9.28;81.02
75996;BME280;64681;49.738;9.004;2022-12-29T15:40:34;98859.59;;;9.61;80.37
75996;BME280;64681;49.738;9.004;2022-12-29T15:43:21;98847.59;;;9.42;80.78
75996;BME280;64681;49.738;9.004;2022-12-29T15:45:50;98861.81;;;9.34;81.03
75996;BME280;64681;49.738;9.004;2022-12-29T15:48:21;98873.13;;;9.18;81.70
75996;BME280;64681;49.738;9.004;2022-12-29T15:50:49;98875.91;;;9.22;80.55
75996;BME280;64681;49.738;9.004;2022-12-29T15:53:27;98866.88;;;8.90;82.30
75996;BME280;64681;49.738;9.004;2022-12-29T15:56:06;98877.47;;;9.11;80.92
75996;BME280;64681;49.738;9.004;2022-12-29T15:58:41;98889.75;;;9.03;80.71
75996;BME280;64681;49.738;9.004;2022-12-29T16:03:45;98902.25;;;8.90;80.37
75996;BME280;64681;49.738;9.004;2022-12-29T16:06:34;98905.84;;;8.61;81.70
75996;BME280;64681;49.738;9.004;2022-12-29T16:09:06;98905.25;;;8.89;80.79
75996;BME280;64681;49.738;9.004;2022-12-29T16:11:41;98897.34;;;8.46;82.38
75996;BME280;64681;49.738;9.004;2022-12-29T16:14:31;98901.88;;;8.46;82.89
75996;BME280;64681;49.738;9.004;2022-12-29T16:17:02;98903.69;;;8.33;83.52
75996;BME280;64681;49.738;9.004;2022-12-29T16:19:37;98895.78;;;8.24;83.65